Wetterdaten: aktuell Montag, 05.06.2023 22:20
Datum Zeit Temp. A. Feuchte A. Luftdruck Regen Wind Taupunkt Windchill Windben
05.06.2023 22:20 16,8 C 56 % 1016,8 hPa 0,0 l/m 6,0 km/h (2 Bft) 8,0 C 16,8 C 12,9 km/h (3 Bft)
05.06.2023 22:10 17,0 C 55 % 1016,7 hPa 0,0 l/m 6,7 km/h (2 Bft) 7,9 C 16,9 C 12,9 km/h (3 Bft)
05.06.2023 22:00 17,3 C 54 % 1016,6 hPa 0,0 l/m 7,2 km/h (2 Bft) 7,9 C 16,9 C 16,1 km/h (3 Bft)
05.06.2023 21:50 17,6 C 54 % 1016,4 hPa 0,0 l/m 8,1 km/h (2 Bft) 8,2 C 16,8 C 14,5 km/h (3 Bft)
05.06.2023 21:40 17,9 C 53 % 1016,3 hPa 0,0 l/m 8,9 km/h (2 Bft) 8,2 C 16,8 C 17,7 km/h (3 Bft)
05.06.2023 21:30 18,2 C 53 % 1016,2 hPa 0,0 l/m 9,4 km/h (2 Bft) 8,5 C 16,9 C 19,3 km/h (3 Bft)
05.06.2023 21:20 18,4 C 53 % 1016,0 hPa 0,0 l/m 9,5 km/h (2 Bft) 8,6 C 17,1 C 20,9 km/h (4 Bft)
05.06.2023 21:10 18,7 C 53 % 1015,9 hPa 0,0 l/m 10,4 km/h (2 Bft) 8,9 C 17,1 C 17,7 km/h (3 Bft)
05.06.2023 21:00 18,9 C 52 % 1015,7 hPa 0,0 l/m 11,4 km/h (2 Bft) 8,8 C 17,0 C 20,9 km/h (4 Bft)
05.06.2023 20:50 19,2 C 53 % 1015,8 hPa 0,0 l/m 8,5 km/h (2 Bft) 9,4 C 18,3 C 16,1 km/h (3 Bft)
05.06.2023 20:40 19,4 C 53 % 1015,6 hPa 0,0 l/m 7,8 km/h (2 Bft) 9,6 C 18,8 C 16,1 km/h (3 Bft)
05.06.2023 20:30 19,7 C 53 % 1015,5 hPa 0,0 l/m 11,2 km/h (2 Bft) 9,8 C 17,9 C 22,5 km/h (4 Bft)
05.06.2023 20:20 19,9 C 53 % 1015,5 hPa 0,0 l/m 10,0 km/h (2 Bft) 10,0 C 18,5 C 19,3 km/h (3 Bft)
05.06.2023 20:10 20,0 C 53 % 1015,3 hPa 0,0 l/m 9,2 km/h (2 Bft) 10,1 C 18,9 C 19,3 km/h (3 Bft)
05.06.2023 20:00 20,2 C 52 % 1015,3 hPa 0,0 l/m 10,4 km/h (2 Bft) 10,0 C 18,7 C 20,9 km/h (4 Bft)
05.06.2023 19:50 20,4 C 52 % 1015,3 hPa 0,0 l/m 10,5 km/h (2 Bft) 10,2 C 18,9 C 19,3 km/h (3 Bft)
05.06.2023 19:40 20,7 C 52 % 1015,1 hPa 0,0 l/m 10,8 km/h (2 Bft) 10,5 C 19,2 C 19,3 km/h (3 Bft)
05.06.2023 19:30 21,0 C 51 % 1015,2 hPa 0,0 l/m 16,0 km/h (3 Bft) 10,5 C 18,2 C 27,4 km/h (4 Bft)
05.06.2023 19:20 21,5 C 49 % 1015,1 hPa 0,0 l/m 15,1 km/h (3 Bft) 10,3 C 19,0 C 25,7 km/h (4 Bft)
05.06.2023 19:10 21,9 C 48 % 1015,0 hPa 0,0 l/m 14,2 km/h (3 Bft) 10,4 C 19,7 C 29,0 km/h (5 Bft)
05.06.2023 19:00 21,9 C 49 % 1014,8 hPa 0,0 l/m 16,2 km/h (3 Bft) 10,7 C 19,3 C 30,6 km/h (5 Bft)
_ Min-Zeit 05:50 16:10 16:40 - 01:00 05:20 05:40 01:20
Minimum _ 8,3 C 39 % 1014,1 hPa - 0,0 km/h (0 Bft) 3,0 C 8,4 C 0,0 km/h (0 Bft)
_ Max-Zeit 16:30 05:30 00:00 00:00 18:30 16:20 16:20 18:20
Maximum _ 27,3 C 69 % 1017,6 hPa 0,0 l/m 18,1 km/h
O-SO (3 Bft)
13,2 C 27,0 C 33,8 km/h
NO (5 Bft)
Durchschnitt _ 18,4 C 51 % 1016,2 hPa #0,0 l/m 6,4 km/h (2 Bft) 7,9 C 17,9 C 13,9 km/h (3 Bft)